createdAt,value
2022-08-27T00:01:08.721Z,29.58
2022-08-27T00:03:41.818Z,29.33
2022-08-27T00:06:11.709Z,28.75
2022-08-27T00:08:41.655Z,31.77
2022-08-27T00:11:11.759Z,31.23
2022-08-27T00:13:42.729Z,30.85
2022-08-27T00:16:16.855Z,31.83
2022-08-27T00:18:48.455Z,31.42
2022-08-27T00:21:18.975Z,29.48
2022-08-27T00:23:49.019Z,30.30
2022-08-27T00:26:19.069Z,27.58
2022-08-27T00:28:49.070Z,28.58
2022-08-27T00:31:27.457Z,28.25
2022-08-27T00:33:57.846Z,28.17
2022-08-27T00:36:28.016Z,27.90
2022-08-27T00:38:57.885Z,28.63
2022-08-27T00:41:27.730Z,28.98
2022-08-27T00:43:59.933Z,27.98
2022-08-27T00:46:38.734Z,29.73
2022-08-27T00:49:12.838Z,27.67
2022-08-27T00:51:43.321Z,28.58
2022-08-27T00:54:18.932Z,29.70
2022-08-27T00:56:51.704Z,29.15
2022-08-27T00:59:25.493Z,30.00
2022-08-27T01:02:10.885Z,28.83
2022-08-27T01:04:43.432Z,30.15
2022-08-27T01:07:14.460Z,30.98
2022-08-27T01:09:45.719Z,28.80
2022-08-27T01:12:15.782Z,28.65
2022-08-27T01:14:47.638Z,30.48
2022-08-27T01:17:20.417Z,29.55
2022-08-27T01:19:53.909Z,30.17
2022-08-27T01:22:33.848Z,29.33
2022-08-27T01:25:10.840Z,29.70
2022-08-27T01:27:41.983Z,31.27
2022-08-27T01:30:15.007Z,29.88
2022-08-27T01:32:47.004Z,30.88
2022-08-27T01:35:18.991Z,32.20
2022-08-27T01:37:52.324Z,32.70
2022-08-27T01:40:25.555Z,32.47
2022-08-27T01:42:58.175Z,32.05
2022-08-27T01:45:31.246Z,33.70
2022-08-27T01:48:01.416Z,33.67
2022-08-27T01:50:35.995Z,32.83
2022-08-27T01:53:08.069Z,33.75
2022-08-27T01:55:41.200Z,34.38
2022-08-27T01:58:17.691Z,34.42
2022-08-27T02:00:52.035Z,35.45
2022-08-27T02:03:27.312Z,34.40
2022-08-27T02:05:57.290Z,35.70
2022-08-27T02:08:27.146Z,34.85
2022-08-27T02:10:59.610Z,34.17
2022-08-27T02:13:29.642Z,34.92
2022-08-27T02:15:59.596Z,35.38
2022-08-27T02:18:29.598Z,35.25
2022-08-27T02:20:59.396Z,34.80
2022-08-27T02:23:29.479Z,33.65
2022-08-27T02:26:01.853Z,35.08
2022-08-27T02:28:31.724Z,34.17
2022-08-27T02:31:01.807Z,34.15
2022-08-27T02:33:32.910Z,34.25
2022-08-27T02:36:03.255Z,33.92
2022-08-27T02:38:33.484Z,35.33
2022-08-27T02:41:06.342Z,34.83
2022-08-27T02:43:36.450Z,33.65
2022-08-27T02:46:06.938Z,34.35
2022-08-27T02:48:38.959Z,33.72
2022-08-27T02:51:10.034Z,33.05
2022-08-27T02:53:40.393Z,34.50
2022-08-27T02:56:13.094Z,33.95
2022-08-27T02:58:44.028Z,32.77
2022-08-27T03:01:14.054Z,30.40
2022-08-27T03:03:44.530Z,31.70
2022-08-27T03:06:14.754Z,32.65
2022-08-27T03:08:52.268Z,29.65
2022-08-27T03:11:26.284Z,31.30
2022-08-27T03:13:56.324Z,28.52
2022-08-27T03:16:26.269Z,28.77
2022-08-27T03:18:53.634Z,27.52
2022-08-27T03:21:27.738Z,27.33
2022-08-27T03:23:57.652Z,28.23
2022-08-27T03:26:30.176Z,26.63
2022-08-27T03:29:00.407Z,26.48
2022-08-27T03:31:31.298Z,26.42
2022-08-27T03:34:03.367Z,25.45
2022-08-27T03:36:33.896Z,25.20
2022-08-27T03:39:03.754Z,25.52
2022-08-27T03:41:45.480Z,28.10
2022-08-27T03:44:25.047Z,29.38
2022-08-27T03:46:55.231Z,28.17
2022-08-27T03:49:26.205Z,29.02
2022-08-27T03:51:57.234Z,31.00
2022-08-27T03:54:27.365Z,31.33
2022-08-27T03:56:59.868Z,30.90
2022-08-27T03:59:29.730Z,32.03
2022-08-27T04:02:00.146Z,32.05
2022-08-27T04:04:31.041Z,34.08
2022-08-27T04:07:00.912Z,35.20
2022-08-27T04:09:30.846Z,35.22
2022-08-27T04:12:03.233Z,35.88
2022-08-27T04:14:33.911Z,34.42
2022-08-27T04:17:03.705Z,35.50
2022-08-27T04:19:34.173Z,36.60
2022-08-27T04:22:05.984Z,36.67
2022-08-27T04:24:37.416Z,37.22
2022-08-27T04:27:11.060Z,39.75
2022-08-27T04:29:41.007Z,40.03
2022-08-27T04:32:11.023Z,38.20
2022-08-27T04:34:40.991Z,38.95
2022-08-27T04:37:10.833Z,37.95
2022-08-27T04:39:40.834Z,38.20
2022-08-27T04:42:13.221Z,39.95
2022-08-27T04:44:43.082Z,37.03
2022-08-27T04:47:13.426Z,37.47
2022-08-27T04:49:43.524Z,37.53
2022-08-27T04:52:13.424Z,39.13
2022-08-27T04:54:43.315Z,38.28
2022-08-27T04:57:15.745Z,36.78
2022-08-27T04:59:45.585Z,38.25
2022-08-27T05:02:16.594Z,37.80
2022-08-27T05:04:47.018Z,36.55
2022-08-27T05:07:16.872Z,36.17
2022-08-27T05:09:46.669Z,37.97
2022-08-27T05:12:19.058Z,37.40
2022-08-27T05:14:48.951Z,37.45
2022-08-27T05:17:18.767Z,36.33
2022-08-27T05:19:49.364Z,38.15
2022-08-27T05:22:19.168Z,36.55
2022-08-27T05:24:50.538Z,37.95
2022-08-27T05:27:23.014Z,38.33
2022-08-27T05:29:53.090Z,37.15
2022-08-27T05:32:22.893Z,35.70
2022-08-27T05:34:52.985Z,36.63
2022-08-27T05:37:22.887Z,35.90
2022-08-27T05:39:52.810Z,35.63
2022-08-27T05:42:25.212Z,37.40
2022-08-27T05:44:55.617Z,36.17
2022-08-27T05:47:25.522Z,37.67
2022-08-27T05:49:55.541Z,38.40
2022-08-27T05:52:25.363Z,37.13
2022-08-27T05:54:55.307Z,37.33
2022-08-27T05:57:27.684Z,38.72
2022-08-27T06:00:09.972Z,38.78
2022-08-27T06:02:46.762Z,38.53
2022-08-27T06:05:16.635Z,41.53
2022-08-27T06:07:46.702Z,40.42
2022-08-27T06:10:19.843Z,41.17
2022-08-27T06:12:56.721Z,40.45
2022-08-27T06:15:26.920Z,40.53
2022-08-27T06:17:56.741Z,42.53
2022-08-27T06:20:29.313Z,41.17
2022-08-27T06:22:59.126Z,41.22
2022-08-27T06:25:29.014Z,41.85
2022-08-27T06:28:02.060Z,40.35
2022-08-27T06:30:31.867Z,38.38
2022-08-27T06:33:01.675Z,40.47
2022-08-27T06:35:34.032Z,39.13
2022-08-27T06:38:04.087Z,37.80
2022-08-27T06:40:34.046Z,36.38
2022-08-27T06:43:06.467Z,37.97
2022-08-27T06:45:40.772Z,36.00
2022-08-27T06:50:41.490Z,36.42
2022-08-27T06:53:11.534Z,35.28
2022-08-27T06:55:45.111Z,33.90
2022-08-27T06:58:19.625Z,35.33
2022-08-27T07:00:49.481Z,34.13
2022-08-27T07:03:19.720Z,34.83
2022-08-27T07:05:49.548Z,35.55
2022-08-27T07:08:19.349Z,34.67
2022-08-27T07:10:49.185Z,36.17
2022-08-27T07:13:21.638Z,36.22
2022-08-27T07:15:51.531Z,34.53
2022-08-27T07:18:27.224Z,35.30
2022-08-27T07:20:57.787Z,34.92
2022-08-27T07:23:28.714Z,34.13
2022-08-27T07:25:58.829Z,33.78
2022-08-27T07:28:31.618Z,31.60
2022-08-27T07:31:01.662Z,32.97
2022-08-27T07:33:31.628Z,30.30
2022-08-27T07:36:01.455Z,31.33
2022-08-27T07:38:31.249Z,28.90
2022-08-27T07:41:01.073Z,29.83
2022-08-27T07:43:45.978Z,31.33
2022-08-27T07:46:15.895Z,31.65
2022-08-27T07:48:45.856Z,30.13
2022-08-27T07:51:17.234Z,34.17
2022-08-27T07:53:47.707Z,33.22
2022-08-27T07:56:18.509Z,34.60
2022-08-27T07:58:51.156Z,33.80
2022-08-27T08:01:21.395Z,35.45
2022-08-27T08:03:51.252Z,35.53
2022-08-27T08:06:21.718Z,35.05
2022-08-27T08:08:52.027Z,36.40
2022-08-27T08:11:22.774Z,36.15
2022-08-27T08:13:55.167Z,36.88
2022-08-27T08:16:31.471Z,36.40
2022-08-27T08:19:02.186Z,40.00
2022-08-27T08:21:32.124Z,37.70
2022-08-27T08:24:02.456Z,35.97
2022-08-27T08:26:32.274Z,36.60
2022-08-27T08:29:05.166Z,25.33
2022-08-27T08:31:35.104Z,26.63
2022-08-27T08:34:04.987Z,31.30
2022-08-27T08:36:35.545Z,33.75
2022-08-27T08:39:05.410Z,33.05
2022-08-27T08:41:43.820Z,33.70
2022-08-27T08:44:33.578Z,34.85
2022-08-27T08:47:08.484Z,39.60
2022-08-27T08:49:54.726Z,39.10
2022-08-27T08:52:39.181Z,41.35
2022-08-27T08:55:20.208Z,42.03
2022-08-27T08:57:56.461Z,38.05
2022-08-27T09:00:28.899Z,35.10
2022-08-27T09:03:00.005Z,34.75
2022-08-27T09:05:31.083Z,36.03
2022-08-27T09:08:31.862Z,37.53
2022-08-27T09:11:07.236Z,38.67
2022-08-27T09:13:42.398Z,40.08
2022-08-27T09:16:14.834Z,40.10
2022-08-27T09:18:46.172Z,41.35
2022-08-27T09:21:33.911Z,40.00
2022-08-27T09:24:10.949Z,39.70
2022-08-27T09:26:42.939Z,40.42
2022-08-27T09:29:20.143Z,41.10
2022-08-27T09:31:59.589Z,38.97
2022-08-27T09:34:36.341Z,39.78
2022-08-27T09:37:10.451Z,41.40
2022-08-27T09:39:50.041Z,39.17
2022-08-27T09:42:32.283Z,38.67
2022-08-27T09:45:02.427Z,42.25
2022-08-27T09:47:44.857Z,42.13
2022-08-27T09:50:15.430Z,37.65
2022-08-27T09:52:55.281Z,39.63
2022-08-27T09:55:33.053Z,40.13
2022-08-27T09:58:06.170Z,37.60
2022-08-27T10:00:40.931Z,38.42
2022-08-27T10:03:14.673Z,39.45
2022-08-27T10:05:50.623Z,47.50
2022-08-27T10:08:28.372Z,39.67
2022-08-27T10:11:04.586Z,38.72
2022-08-27T10:13:43.336Z,40.08
2022-08-27T10:16:28.348Z,36.53
2022-08-27T10:19:12.269Z,35.47
2022-08-27T10:21:50.006Z,35.35
2022-08-27T10:24:30.551Z,34.58
2022-08-27T10:27:12.240Z,35.53
2022-08-27T10:29:51.642Z,34.00
2022-08-27T10:32:37.302Z,33.60
2022-08-27T10:35:16.602Z,34.55
2022-08-27T10:37:59.467Z,33.90
2022-08-27T10:40:36.054Z,33.28
2022-08-27T10:43:18.460Z,33.63
2022-08-27T10:45:56.059Z,33.53
2022-08-27T10:48:33.584Z,33.08
2022-08-27T10:51:13.007Z,35.53
2022-08-27T10:53:52.117Z,37.75
2022-08-27T10:56:29.992Z,31.38
2022-08-27T10:59:08.723Z,33.08
2022-08-27T11:01:48.041Z,33.33
2022-08-27T11:04:23.013Z,34.20
2022-08-27T11:07:01.352Z,34.03
2022-08-27T11:09:39.601Z,33.22
2022-08-27T11:12:14.865Z,34.72
2022-08-27T11:14:52.418Z,32.45
2022-08-27T11:17:32.086Z,35.88
2022-08-27T11:20:07.920Z,33.45
2022-08-27T11:22:44.222Z,31.27
2022-08-27T11:25:29.320Z,31.55
2022-08-27T11:28:01.089Z,30.52
2022-08-27T11:30:38.712Z,30.27
2022-08-27T11:33:17.350Z,29.83
2022-08-27T11:36:02.201Z,32.22
2022-08-27T11:38:48.500Z,38.95
2022-08-27T11:41:44.774Z,30.27
2022-08-27T11:44:16.632Z,30.98
2022-08-27T11:46:49.202Z,30.38
2022-08-27T11:49:28.749Z,32.55
2022-08-27T11:52:02.245Z,32.33
2022-08-27T11:54:47.012Z,32.05
2022-08-27T11:57:29.561Z,30.05
2022-08-27T12:00:00.263Z,32.28
2022-08-27T12:02:32.430Z,31.60
2022-08-27T12:05:14.217Z,32.15
2022-08-27T12:07:47.264Z,33.03
2022-08-27T12:10:41.238Z,32.42
2022-08-27T12:13:24.651Z,32.58
2022-08-27T12:16:12.383Z,33.28
2022-08-27T12:18:54.341Z,31.88
2022-08-27T12:21:33.021Z,32.78
2022-08-27T12:24:16.889Z,31.50
2022-08-27T12:26:58.661Z,30.90
2022-08-27T12:29:41.175Z,31.45
2022-08-27T12:32:28.921Z,29.70
2022-08-27T12:35:05.494Z,30.25
2022-08-27T12:37:38.877Z,31.23
2022-08-27T12:40:16.257Z,28.40
2022-08-27T12:42:53.250Z,29.15
2022-08-27T12:45:25.883Z,30.23
2022-08-27T12:47:57.947Z,29.85
2022-08-27T12:50:31.958Z,28.92
2022-08-27T12:53:24.360Z,28.73
2022-08-27T12:56:12.898Z,29.50
2022-08-27T12:58:53.209Z,27.88
2022-08-27T13:01:41.011Z,25.00
2022-08-27T13:04:23.265Z,27.02
2022-08-27T13:06:53.513Z,24.70
2022-08-27T13:09:29.857Z,27.67
2022-08-27T13:12:01.240Z,28.10
2022-08-27T13:14:39.223Z,25.13
2022-08-27T13:17:13.351Z,23.63
2022-08-27T13:19:50.958Z,24.65
2022-08-27T13:22:28.428Z,25.92
2022-08-27T13:24:59.814Z,27.67
2022-08-27T13:27:32.498Z,25.27
2022-08-27T13:30:22.975Z,26.85
2022-08-27T13:33:06.022Z,26.20
2022-08-27T13:35:37.595Z,25.65
2022-08-27T13:38:08.096Z,23.42
2022-08-27T13:40:53.005Z,24.08
2022-08-27T13:43:32.161Z,21.35
2022-08-27T13:46:09.633Z,22.13
2022-08-27T13:48:43.705Z,22.05
2022-08-27T13:51:15.171Z,22.08
2022-08-27T13:54:01.416Z,23.45
2022-08-27T13:56:33.477Z,24.00
2022-08-27T13:59:12.337Z,27.42
2022-08-27T14:01:58.073Z,26.63
2022-08-27T14:04:31.177Z,26.25
2022-08-27T14:07:01.037Z,25.00
2022-08-27T14:09:33.148Z,26.70
2022-08-27T14:12:06.010Z,25.20
2022-08-27T14:14:40.671Z,26.05
2022-08-27T14:17:29.484Z,23.60
2022-08-27T14:20:04.292Z,25.75
2022-08-27T14:22:34.503Z,25.80
2022-08-27T14:25:04.418Z,25.75
2022-08-27T14:27:34.595Z,26.27
2022-08-27T14:30:04.514Z,24.83
2022-08-27T14:32:36.990Z,26.20
2022-08-27T14:35:07.357Z,25.13
2022-08-27T14:37:37.359Z,24.65
2022-08-27T14:40:08.405Z,23.80
2022-08-27T14:42:41.128Z,24.80
2022-08-27T14:45:11.523Z,23.00
2022-08-27T14:47:45.319Z,23.42
2022-08-27T14:50:16.809Z,24.83
2022-08-27T14:52:46.627Z,24.17
2022-08-27T14:55:16.483Z,23.10
2022-08-27T14:57:46.913Z,24.83
2022-08-27T15:00:17.093Z,24.70
2022-08-27T15:02:51.518Z,23.83
2022-08-27T15:05:25.000Z,23.02
2022-08-27T15:07:58.166Z,23.25
2022-08-27T15:10:29.015Z,23.08
2022-08-27T15:12:59.594Z,21.60
2022-08-27T15:15:29.400Z,21.23
2022-08-27T15:18:04.544Z,21.88
2022-08-27T15:20:34.670Z,21.67
2022-08-27T15:23:05.911Z,19.35
2022-08-27T15:25:36.457Z,19.23
2022-08-27T15:28:06.952Z,17.92
2022-08-27T15:30:37.916Z,17.40
2022-08-27T15:33:10.720Z,17.42
2022-08-27T15:35:40.535Z,18.95
2022-08-27T15:38:10.928Z,17.80
2022-08-27T15:40:41.289Z,18.35
2022-08-27T15:43:13.503Z,18.13
2022-08-27T15:45:43.520Z,17.63
2022-08-27T15:48:15.958Z,17.45
2022-08-27T15:50:46.271Z,19.02
2022-08-27T15:53:16.548Z,18.65
2022-08-27T15:55:47.569Z,20.30
2022-08-27T15:58:17.446Z,19.75
2022-08-27T16:00:48.861Z,22.42
2022-08-27T16:03:35.466Z,23.80
2022-08-27T16:06:06.610Z,25.05
2022-08-27T16:08:36.783Z,26.67
2022-08-27T16:11:11.769Z,27.80
2022-08-27T16:13:41.671Z,27.83
2022-08-27T16:16:13.058Z,27.30
2022-08-27T16:18:45.753Z,27.80
2022-08-27T16:21:16.044Z,27.65
2022-08-27T16:23:46.004Z,27.23
2022-08-27T16:26:16.781Z,27.10
2022-08-27T16:28:46.834Z,26.50
2022-08-27T16:31:18.314Z,26.95
2022-08-27T16:33:51.215Z,25.80
2022-08-27T16:36:21.236Z,26.75
2022-08-27T16:38:51.176Z,24.50
2022-08-27T16:41:21.399Z,26.52
2022-08-27T16:43:51.215Z,25.85
2022-08-27T16:46:21.044Z,25.55
2022-08-27T16:49:06.570Z,24.75
2022-08-27T16:51:38.076Z,24.40
2022-08-27T16:54:09.695Z,24.55
2022-08-27T16:56:40.133Z,24.63
2022-08-27T16:59:13.054Z,25.45
2022-08-27T17:01:43.630Z,24.77
2022-08-27T17:04:28.230Z,24.73
2022-08-27T17:07:00.301Z,25.73
2022-08-27T17:09:30.657Z,25.83
2022-08-27T17:12:05.294Z,24.27
2022-08-27T17:14:38.007Z,23.55
2022-08-27T17:17:09.466Z,25.42
2022-08-27T17:19:42.171Z,25.20
2022-08-27T17:22:12.280Z,26.20
2022-08-27T17:24:42.510Z,25.83
2022-08-27T17:27:12.447Z,24.13
2022-08-27T17:29:42.299Z,25.05
2022-08-27T17:32:12.445Z,24.77
2022-08-27T17:34:44.967Z,22.90
2022-08-27T17:37:15.006Z,24.85
2022-08-27T17:39:46.997Z,26.17
2022-08-27T17:42:16.882Z,29.95
2022-08-27T17:44:46.772Z,25.38
2022-08-27T17:47:16.760Z,25.33
2022-08-27T17:49:49.314Z,24.52
2022-08-27T17:52:19.230Z,23.60
2022-08-27T17:54:51.256Z,23.50
2022-08-27T17:57:24.166Z,19.23
2022-08-27T17:59:55.333Z,12.52
2022-08-27T18:02:28.026Z,14.35
2022-08-27T18:05:00.692Z,9.88
2022-08-27T18:07:31.086Z,9.65
2022-08-27T18:10:01.556Z,8.27
2022-08-27T18:12:31.680Z,6.38
2022-08-27T18:15:08.387Z,6.80
2022-08-27T18:17:40.023Z,6.45
2022-08-27T18:20:16.787Z,6.32
2022-08-27T18:25:19.815Z,6.35
2022-08-27T18:27:52.775Z,6.47
2022-08-27T18:30:23.333Z,6.63
2022-08-27T18:32:53.616Z,6.65
2022-08-27T18:35:27.751Z,7.20
2022-08-27T18:37:58.009Z,7.25
2022-08-27T18:40:32.884Z,6.97
2022-08-27T18:43:02.841Z,7.60
2022-08-27T18:45:34.701Z,7.88
2022-08-27T18:48:05.686Z,7.70
2022-08-27T18:50:48.291Z,7.78
2022-08-27T18:53:20.421Z,8.00
2022-08-27T18:55:51.352Z,8.10
2022-08-27T18:58:21.481Z,7.90
2022-08-27T19:00:56.844Z,8.93
2022-08-27T19:03:30.543Z,8.57
2022-08-27T19:06:07.890Z,8.75
2022-08-27T19:08:39.564Z,8.80
2022-08-27T19:11:09.854Z,9.43
2022-08-27T19:13:39.887Z,9.60
2022-08-27T19:16:14.651Z,10.30
2022-08-27T19:18:45.647Z,10.27
2022-08-27T19:21:18.282Z,10.10
2022-08-27T19:23:48.205Z,10.65
2022-08-27T19:26:21.825Z,10.57
2022-08-27T19:28:51.659Z,9.98
2022-08-27T19:31:21.643Z,10.82
2022-08-27T19:33:52.174Z,11.50
2022-08-27T19:36:26.000Z,11.55
2022-08-27T19:38:58.351Z,12.25
2022-08-27T19:41:28.541Z,11.57
2022-08-27T19:43:58.633Z,10.95
2022-08-27T19:46:29.588Z,11.65
2022-08-27T19:48:59.448Z,11.30
2022-08-27T19:51:31.992Z,11.40
2022-08-27T19:54:01.996Z,11.27
2022-08-27T19:56:32.730Z,11.32
2022-08-27T19:59:16.189Z,11.60
2022-08-27T20:01:52.751Z,10.40
2022-08-27T20:04:22.858Z,11.10
2022-08-27T20:06:55.607Z,11.65
2022-08-27T20:09:25.701Z,10.98
2022-08-27T20:11:55.617Z,11.93
2022-08-27T20:14:25.452Z,12.38
2022-08-27T20:16:55.302Z,12.25
2022-08-27T20:19:25.925Z,11.95
2022-08-27T20:21:58.346Z,12.23
2022-08-27T20:24:28.185Z,12.00
2022-08-27T20:26:58.698Z,12.00
2022-08-27T20:29:32.435Z,12.70
2022-08-27T20:32:04.205Z,13.35
2022-08-27T20:34:34.932Z,11.63
2022-08-27T20:37:08.453Z,13.52
2022-08-27T20:39:38.331Z,11.40
2022-08-27T20:42:09.580Z,13.40
2022-08-27T20:44:39.409Z,13.48
2022-08-27T20:47:09.961Z,13.10
2022-08-27T20:49:41.538Z,13.88
2022-08-27T20:52:15.451Z,13.48
2022-08-27T20:54:45.304Z,12.48
2022-08-27T20:57:15.459Z,13.43
2022-08-27T20:59:57.813Z,12.75
2022-08-27T21:02:30.184Z,13.35
2022-08-27T21:05:00.693Z,13.57
2022-08-27T21:07:33.229Z,14.63
2022-08-27T21:10:03.118Z,13.93
2022-08-27T21:12:33.701Z,14.20
2022-08-27T21:15:05.308Z,13.95
2022-08-27T21:17:35.316Z,13.40
2022-08-27T21:20:06.037Z,14.05
2022-08-27T21:22:38.563Z,14.63
2022-08-27T21:25:09.367Z,15.05
2022-08-27T21:27:39.646Z,15.50
2022-08-27T21:30:12.538Z,13.98
2022-08-27T21:32:42.395Z,14.85
2022-08-27T21:35:12.763Z,15.85
2022-08-27T21:37:45.274Z,14.90
2022-08-27T21:40:15.402Z,16.10
2022-08-27T21:42:45.297Z,16.25
2022-08-27T21:45:15.390Z,15.80
2022-08-27T21:47:51.803Z,17.08
2022-08-27T21:50:22.702Z,16.15
2022-08-27T21:52:55.155Z,15.93
2022-08-27T21:55:25.367Z,14.75
2022-08-27T21:57:55.219Z,13.82
2022-08-27T22:00:41.096Z,13.07
2022-08-27T22:03:20.210Z,13.63
2022-08-27T22:05:50.563Z,14.38
2022-08-27T22:08:25.088Z,13.10
2022-08-27T22:10:59.367Z,14.50
2022-08-27T22:15:59.339Z,14.10
2022-08-27T22:18:29.270Z,15.35
2022-08-27T22:21:00.126Z,15.95
2022-08-27T22:23:32.581Z,16.70
2022-08-27T22:26:03.396Z,17.55
2022-08-27T22:28:33.281Z,17.30
2022-08-27T22:31:03.193Z,16.10
2022-08-27T22:33:33.152Z,16.42
2022-08-27T22:36:03.769Z,16.48
2022-08-27T22:38:36.463Z,16.58
2022-08-27T22:41:06.442Z,15.27
2022-08-27T22:43:37.730Z,16.67
2022-08-27T22:46:07.710Z,15.80
2022-08-27T22:48:37.691Z,16.42
2022-08-27T22:51:07.889Z,16.77
2022-08-27T22:56:14.169Z,16.13
2022-08-27T22:58:45.997Z,17.08
2022-08-27T23:01:20.587Z,17.27
2022-08-27T23:06:20.864Z,17.10
2022-08-27T23:08:53.484Z,15.70
2022-08-27T23:11:23.620Z,17.02
2022-08-27T23:13:53.519Z,17.55
2022-08-27T23:16:23.499Z,18.08
2022-08-27T23:18:53.576Z,19.02
2022-08-27T23:21:23.487Z,18.88
2022-08-27T23:23:55.985Z,17.88
2022-08-27T23:26:38.367Z,19.45
2022-08-27T23:29:11.185Z,18.65
2022-08-27T23:31:41.452Z,18.70
2022-08-27T23:34:11.311Z,18.77
2022-08-27T23:36:41.155Z,17.70
2022-08-27T23:39:13.637Z,18.23
2022-08-27T23:41:44.720Z,17.08
2022-08-27T23:44:15.713Z,16.58
2022-08-27T23:46:45.696Z,18.55
2022-08-27T23:49:16.102Z,19.58
2022-08-27T23:51:46.190Z,20.08
2022-08-27T23:54:18.658Z,20.92
2022-08-27T23:56:48.545Z,24.40
2022-08-27T23:59:18.457Z,23.63
